createdAt,value
2019-03-18T00:00:32.568Z,4.48
2019-03-18T00:02:58.888Z,4.49
2019-03-18T00:05:27.638Z,4.47
2019-03-18T00:07:53.494Z,4.51
2019-03-18T00:10:19.356Z,4.49
2019-03-18T00:12:45.163Z,4.48
2019-03-18T00:15:11.691Z,4.48
2019-03-18T00:17:37.547Z,4.49
2019-03-18T00:20:07.537Z,4.46
2019-03-18T00:22:33.370Z,4.43
2019-03-18T00:24:59.194Z,4.38
2019-03-18T00:27:25.032Z,4.39
2019-03-18T00:29:50.852Z,4.40
2019-03-18T00:32:16.708Z,4.37
2019-03-18T00:34:42.557Z,4.40
2019-03-18T00:37:08.363Z,4.34
2019-03-18T00:39:34.554Z,4.31
2019-03-18T00:42:00.399Z,4.29
2019-03-18T00:44:26.436Z,4.28
2019-03-18T00:46:52.248Z,4.27
2019-03-18T00:49:18.103Z,4.23
2019-03-18T00:51:43.913Z,4.23
2019-03-18T00:54:09.725Z,4.09
2019-03-18T00:56:35.586Z,3.92
2019-03-18T00:59:01.378Z,3.86
2019-03-18T01:01:27.196Z,3.70
2019-03-18T01:03:53.037Z,3.64
2019-03-18T01:06:18.943Z,3.60
2019-03-18T01:08:45.011Z,3.58
2019-03-18T01:11:10.842Z,3.51
2019-03-18T01:13:36.676Z,3.51
2019-03-18T01:16:02.707Z,3.33
2019-03-18T01:18:28.529Z,3.36
2019-03-18T01:20:54.364Z,3.30
2019-03-18T01:23:20.200Z,3.20
2019-03-18T01:25:46.228Z,3.23
2019-03-18T01:28:12.070Z,3.20
2019-03-18T01:30:37.897Z,3.20
2019-03-18T01:33:50.592Z,3.17
2019-03-18T01:36:16.521Z,3.06
2019-03-18T01:38:42.438Z,3.05
2019-03-18T01:41:08.266Z,3.01
2019-03-18T01:43:34.092Z,3.01
2019-03-18T01:45:59.960Z,3.03
2019-03-18T01:48:25.786Z,3.00
2019-03-18T01:50:51.609Z,2.87
2019-03-18T01:53:17.425Z,2.86
2019-03-18T01:55:43.253Z,2.86
2019-03-18T01:58:09.103Z,2.81
2019-03-18T02:00:35.033Z,2.78
2019-03-18T02:03:00.879Z,2.78
2019-03-18T02:05:26.702Z,2.80
2019-03-18T02:07:52.526Z,2.82
2019-03-18T02:10:18.342Z,2.75
2019-03-18T02:12:44.275Z,2.71
2019-03-18T02:15:11.397Z,2.63
2019-03-18T02:17:37.208Z,2.63
2019-03-18T02:20:06.340Z,2.62
2019-03-18T02:22:32.154Z,2.65
2019-03-18T02:24:57.981Z,2.68
2019-03-18T02:27:23.794Z,2.70
2019-03-18T02:29:49.638Z,2.73
2019-03-18T02:32:15.441Z,2.76
2019-03-18T02:34:41.259Z,2.74
2019-03-18T02:37:07.108Z,2.78
2019-03-18T02:39:32.915Z,2.82
2019-03-18T02:41:58.736Z,2.84
2019-03-18T02:44:24.548Z,2.82
2019-03-18T02:46:50.491Z,2.83
2019-03-18T02:49:16.319Z,2.79
2019-03-18T02:51:42.153Z,2.83
2019-03-18T02:54:07.953Z,2.89
2019-03-18T02:56:33.752Z,2.89
2019-03-18T02:58:59.585Z,2.99
2019-03-18T03:01:25.401Z,2.99
2019-03-18T03:03:51.224Z,2.93
2019-03-18T03:06:17.039Z,2.91
2019-03-18T03:08:42.873Z,2.89
2019-03-18T03:11:08.693Z,2.86
2019-03-18T03:13:34.651Z,2.82
2019-03-18T03:16:00.441Z,2.82
2019-03-18T03:18:26.271Z,2.80
2019-03-18T03:20:52.080Z,2.79
2019-03-18T03:23:17.930Z,2.83
2019-03-18T03:25:43.773Z,2.83
2019-03-18T03:28:09.586Z,2.84
2019-03-18T03:30:35.429Z,2.85
2019-03-18T03:33:01.280Z,2.83
2019-03-18T03:35:27.126Z,2.87
2019-03-18T03:37:52.938Z,2.90
2019-03-18T03:40:18.773Z,2.86
2019-03-18T03:42:44.605Z,2.88
2019-03-18T03:45:11.946Z,2.87
2019-03-18T03:47:37.750Z,2.86
2019-03-18T03:50:06.310Z,2.82
2019-03-18T03:52:32.131Z,2.84
2019-03-18T03:54:57.934Z,2.80
2019-03-18T03:57:23.983Z,2.80
2019-03-18T03:59:49.818Z,2.81
2019-03-18T04:02:15.664Z,2.82
2019-03-18T04:04:41.490Z,2.82
2019-03-18T04:07:07.430Z,2.81
2019-03-18T04:09:33.321Z,2.78
2019-03-18T04:11:59.288Z,2.76
2019-03-18T04:14:27.197Z,2.72
2019-03-18T04:17:01.561Z,2.70
2019-03-18T04:19:20.756Z,2.62
2019-03-18T04:21:50.389Z,2.61
2019-03-18T04:24:14.443Z,2.58
2019-03-18T04:26:40.285Z,2.59
2019-03-18T04:29:06.210Z,2.54
2019-03-18T04:31:32.029Z,2.49
2019-03-18T04:33:57.864Z,2.50
2019-03-18T04:36:23.795Z,2.52
2019-03-18T04:38:49.639Z,2.49
2019-03-18T04:41:15.466Z,2.47
2019-03-18T04:43:41.405Z,2.42
2019-03-18T04:46:07.246Z,2.39
2019-03-18T04:48:33.089Z,2.37
2019-03-18T04:50:58.934Z,2.35
2019-03-18T04:53:24.773Z,2.36
2019-03-18T04:55:50.782Z,2.38
2019-03-18T04:58:16.728Z,2.34
2019-03-18T05:00:42.558Z,2.27
2019-03-18T05:03:08.385Z,2.29
2019-03-18T05:05:34.231Z,2.28
2019-03-18T05:08:00.205Z,2.23
2019-03-18T05:10:26.074Z,2.23
2019-03-18T05:12:51.905Z,2.20
2019-03-18T05:15:17.797Z,2.16
2019-03-18T05:17:43.634Z,2.16
2019-03-18T05:20:10.468Z,2.15
2019-03-18T05:22:36.305Z,2.24
2019-03-18T05:25:03.333Z,2.33
2019-03-18T05:27:29.182Z,2.26
2019-03-18T05:29:55.090Z,2.21
2019-03-18T05:32:20.909Z,2.13
2019-03-18T05:34:46.773Z,2.11
2019-03-18T05:37:12.695Z,2.11
2019-03-18T05:39:38.525Z,2.09
2019-03-18T05:42:04.356Z,2.04
2019-03-18T05:44:30.169Z,2.03
2019-03-18T05:46:55.996Z,2.00
2019-03-18T05:49:21.810Z,2.10
2019-03-18T05:51:47.650Z,2.08
2019-03-18T05:54:13.582Z,2.13
2019-03-18T05:56:39.433Z,2.03
2019-03-18T05:59:05.241Z,1.91
2019-03-18T06:01:31.048Z,2.05
2019-03-18T06:03:56.868Z,2.17
2019-03-18T06:06:22.765Z,2.15
2019-03-18T06:08:48.713Z,2.21
2019-03-18T06:11:14.516Z,2.34
2019-03-18T06:13:40.413Z,2.36
2019-03-18T06:16:06.237Z,2.40
2019-03-18T06:18:32.093Z,2.38
2019-03-18T06:20:57.920Z,2.41
2019-03-18T06:23:23.759Z,2.39
2019-03-18T06:25:49.572Z,2.46
2019-03-18T06:28:15.415Z,2.48
2019-03-18T06:30:41.241Z,2.50
2019-03-18T06:33:08.049Z,2.45
2019-03-18T06:35:33.889Z,2.33
2019-03-18T06:37:59.839Z,2.35
2019-03-18T06:40:25.666Z,2.44
2019-03-18T06:42:51.592Z,2.46
2019-03-18T06:45:17.425Z,2.46
2019-03-18T06:47:43.243Z,2.53
2019-03-18T06:50:10.162Z,2.57
2019-03-18T06:52:36.078Z,2.50
2019-03-18T06:55:02.206Z,2.52
2019-03-18T06:57:28.115Z,2.57
2019-03-18T06:59:53.958Z,2.50
2019-03-18T07:02:19.769Z,2.57
2019-03-18T07:04:45.960Z,2.64
2019-03-18T07:07:11.781Z,2.74
2019-03-18T07:09:37.687Z,2.88
2019-03-18T07:12:03.508Z,2.99
2019-03-18T07:14:29.327Z,3.14
2019-03-18T07:16:55.264Z,3.22
2019-03-18T07:19:21.171Z,3.31
2019-03-18T07:21:46.989Z,3.47
2019-03-18T07:24:12.795Z,3.64
2019-03-18T07:26:38.622Z,3.46
2019-03-18T07:29:04.453Z,3.58
2019-03-18T07:31:30.275Z,3.50
2019-03-18T07:33:56.179Z,3.60
2019-03-18T07:36:22.004Z,3.94
2019-03-18T07:38:47.950Z,3.92
2019-03-18T07:41:14.142Z,3.80
2019-03-18T07:43:39.969Z,3.77
2019-03-18T07:46:05.784Z,3.76
2019-03-18T07:48:31.756Z,3.77
2019-03-18T07:50:57.628Z,3.85
2019-03-18T07:53:23.540Z,3.83
2019-03-18T07:55:49.362Z,3.90
2019-03-18T07:58:15.317Z,3.89
2019-03-18T08:00:41.465Z,3.91
2019-03-18T08:03:07.302Z,3.98
2019-03-18T08:05:33.123Z,3.94
2019-03-18T08:07:58.963Z,4.06
2019-03-18T08:10:24.988Z,4.00
2019-03-18T08:12:50.843Z,3.95
2019-03-18T08:15:16.699Z,3.91
2019-03-18T08:17:42.523Z,4.05
2019-03-18T08:20:09.549Z,4.03
2019-03-18T08:22:35.356Z,4.11
2019-03-18T08:25:01.279Z,4.10
2019-03-18T08:27:27.097Z,4.06
2019-03-18T08:29:52.913Z,4.02
2019-03-18T08:32:18.727Z,3.98
2019-03-18T08:34:44.704Z,3.86
2019-03-18T08:37:10.639Z,3.89
2019-03-18T08:39:36.469Z,3.81
2019-03-18T08:42:02.411Z,3.77
2019-03-18T08:44:28.334Z,3.55
2019-03-18T08:46:54.259Z,3.65
2019-03-18T08:49:20.075Z,3.65
2019-03-18T08:51:45.893Z,3.52
2019-03-18T08:54:11.825Z,3.41
2019-03-18T08:56:37.650Z,3.36
2019-03-18T08:59:03.488Z,3.28
2019-03-18T09:01:29.419Z,3.42
2019-03-18T09:03:55.240Z,3.47
2019-03-18T09:06:21.097Z,3.63
2019-03-18T09:08:46.916Z,3.68
2019-03-18T09:11:12.747Z,3.72
2019-03-18T09:13:38.655Z,3.87
2019-03-18T09:16:04.473Z,3.88
2019-03-18T09:18:30.322Z,3.87
2019-03-18T09:20:56.128Z,3.86
2019-03-18T09:23:21.965Z,4.18
2019-03-18T09:25:47.770Z,4.26
2019-03-18T09:28:13.634Z,4.24
2019-03-18T09:30:39.467Z,4.39
2019-03-18T09:33:05.300Z,4.26
2019-03-18T09:35:31.127Z,4.66
2019-03-18T09:37:57.187Z,4.84
2019-03-18T09:40:23.033Z,4.91
2019-03-18T09:42:48.840Z,4.96
2019-03-18T09:45:18.222Z,4.89
2019-03-18T09:47:44.225Z,5.12
2019-03-18T09:50:10.607Z,5.21
2019-03-18T09:52:36.481Z,4.99
2019-03-18T09:55:04.009Z,5.10
2019-03-18T09:57:30.075Z,5.36
2019-03-18T09:59:55.924Z,5.47
2019-03-18T10:02:21.849Z,5.79
2019-03-18T10:04:47.689Z,6.10
2019-03-18T10:07:13.835Z,6.08
2019-03-18T10:09:39.657Z,5.79
2019-03-18T10:12:05.495Z,6.07
2019-03-18T10:14:31.350Z,6.12
2019-03-18T10:17:08.704Z,5.63
2019-03-18T10:19:33.559Z,5.85
2019-03-18T10:21:52.613Z,5.83
2019-03-18T10:24:18.447Z,5.64
2019-03-18T10:26:44.460Z,5.68
2019-03-18T10:29:10.269Z,5.96
2019-03-18T10:31:36.217Z,6.19
2019-03-18T10:34:02.120Z,6.33
2019-03-18T10:36:28.089Z,6.26
2019-03-18T10:38:53.926Z,6.33
2019-03-18T10:41:19.775Z,6.23
2019-03-18T10:43:45.804Z,6.43
2019-03-18T10:46:11.626Z,6.24
2019-03-18T10:48:37.425Z,6.07
2019-03-18T10:51:03.364Z,6.44
2019-03-18T10:53:29.294Z,6.48
2019-03-18T10:56:06.986Z,6.36
2019-03-18T10:58:22.972Z,6.52
2019-03-18T11:00:48.792Z,6.50
2019-03-18T11:03:14.639Z,6.80
2019-03-18T11:05:40.537Z,6.64
2019-03-18T11:08:06.462Z,6.55
2019-03-18T11:10:32.291Z,6.62
2019-03-18T11:12:58.229Z,6.47
2019-03-18T11:15:24.055Z,6.39
2019-03-18T11:17:49.989Z,6.48
2019-03-18T11:20:15.922Z,6.43
2019-03-18T11:22:41.949Z,6.35
2019-03-18T11:25:10.186Z,6.35
2019-03-18T11:27:36.038Z,6.39
2019-03-18T11:30:03.966Z,6.48
2019-03-18T11:32:29.828Z,6.49
2019-03-18T11:34:55.836Z,6.35
2019-03-18T11:37:21.761Z,6.25
2019-03-18T11:39:47.593Z,6.31
2019-03-18T11:42:13.534Z,6.06
2019-03-18T11:44:39.370Z,5.91
2019-03-18T11:47:05.202Z,5.87
2019-03-18T11:49:39.539Z,5.72
2019-03-18T11:51:58.992Z,5.70
2019-03-18T11:54:24.946Z,5.49
2019-03-18T11:56:51.119Z,5.54
2019-03-18T11:59:16.937Z,5.37
2019-03-18T12:01:42.795Z,4.88
2019-03-18T12:04:08.663Z,4.62
2019-03-18T12:06:34.572Z,4.85
2019-03-18T12:09:00.577Z,5.00
2019-03-18T12:11:26.532Z,5.23
2019-03-18T12:13:52.364Z,5.60
2019-03-18T12:16:18.289Z,5.96
2019-03-18T12:18:44.104Z,6.63
2019-03-18T12:21:09.959Z,7.20
2019-03-18T12:23:35.771Z,6.93
2019-03-18T12:26:01.734Z,7.83
2019-03-18T12:28:27.651Z,8.46
2019-03-18T12:30:53.479Z,8.15
2019-03-18T12:33:19.318Z,7.33
2019-03-18T12:35:45.254Z,6.88
2019-03-18T12:38:11.101Z,6.38
2019-03-18T12:40:36.931Z,6.06
2019-03-18T12:43:02.877Z,5.91
2019-03-18T12:45:28.716Z,5.82
2019-03-18T12:47:54.558Z,5.67
2019-03-18T12:50:55.116Z,5.70
2019-03-18T12:52:51.731Z,5.51
2019-03-18T12:55:17.740Z,5.59
2019-03-18T12:57:43.662Z,5.31
2019-03-18T13:00:16.024Z,5.57
2019-03-18T13:02:41.938Z,5.65
2019-03-18T13:05:09.079Z,5.60
2019-03-18T13:07:35.137Z,5.88
2019-03-18T13:10:00.974Z,6.11
2019-03-18T13:12:27.012Z,6.37
2019-03-18T13:14:52.961Z,5.76
2019-03-18T13:17:18.778Z,5.65
2019-03-18T13:19:44.616Z,5.62
2019-03-18T13:22:10.469Z,5.59
2019-03-18T13:24:36.387Z,5.39
2019-03-18T13:27:02.416Z,5.36
2019-03-18T13:29:28.270Z,5.49
2019-03-18T13:31:54.182Z,5.37
2019-03-18T13:34:20.016Z,5.39
2019-03-18T13:36:45.951Z,5.89
2019-03-18T13:39:11.793Z,6.56
2019-03-18T13:41:37.872Z,6.36
2019-03-18T13:44:03.676Z,6.15
2019-03-18T13:46:29.625Z,5.89
2019-03-18T13:48:55.465Z,5.73
2019-03-18T13:51:21.468Z,5.23
2019-03-18T13:53:47.365Z,5.23
2019-03-18T13:56:13.305Z,5.27
2019-03-18T13:58:39.228Z,6.10
2019-03-18T14:01:05.195Z,6.67
2019-03-18T14:03:31.116Z,7.36
2019-03-18T14:05:57.076Z,7.25
2019-03-18T14:08:23.004Z,7.16
2019-03-18T14:10:48.876Z,7.68
2019-03-18T14:13:14.696Z,8.40
2019-03-18T14:15:40.514Z,8.52
2019-03-18T14:18:06.665Z,8.29
2019-03-18T14:20:32.518Z,8.52
2019-03-18T14:22:58.357Z,8.59
2019-03-18T14:25:24.178Z,8.07
2019-03-18T14:27:50.023Z,7.30
2019-03-18T14:30:19.668Z,7.40
2019-03-18T14:32:45.530Z,6.74
2019-03-18T14:35:11.454Z,6.56
2019-03-18T14:37:37.395Z,6.45
2019-03-18T14:40:11.419Z,6.31
2019-03-18T14:42:37.276Z,6.19
2019-03-18T14:45:06.385Z,5.83
2019-03-18T14:47:32.222Z,5.88
2019-03-18T14:49:58.070Z,6.55
2019-03-18T14:52:24.182Z,7.55
2019-03-18T14:54:50.125Z,7.35
2019-03-18T14:57:15.938Z,7.60
2019-03-18T14:59:41.758Z,7.90
2019-03-18T15:02:07.582Z,8.26
2019-03-18T15:04:33.421Z,8.77
2019-03-18T15:06:59.255Z,8.71
2019-03-18T15:09:25.119Z,9.05
2019-03-18T15:11:51.043Z,9.24
2019-03-18T15:14:16.892Z,9.29
2019-03-18T15:16:42.726Z,9.34
2019-03-18T15:19:08.572Z,9.02
2019-03-18T15:21:34.399Z,8.87
2019-03-18T15:24:00.265Z,8.02
2019-03-18T15:26:26.084Z,7.28
2019-03-18T15:28:51.920Z,7.03
2019-03-18T15:31:17.862Z,6.81
2019-03-18T15:33:43.695Z,6.57
2019-03-18T15:36:09.652Z,6.52
2019-03-18T15:38:35.473Z,6.26
2019-03-18T15:41:01.343Z,6.30
2019-03-18T15:43:27.256Z,6.24
2019-03-18T15:45:53.104Z,5.48
2019-03-18T15:48:18.910Z,5.43
2019-03-18T15:50:44.767Z,4.92
2019-03-18T15:53:10.617Z,4.69
2019-03-18T15:55:36.667Z,4.23
2019-03-18T15:58:02.526Z,3.88
2019-03-18T16:00:29.473Z,3.28
2019-03-18T16:02:55.426Z,3.28
2019-03-18T16:05:21.357Z,3.47
2019-03-18T16:07:47.211Z,3.51
2019-03-18T16:10:14.133Z,3.43
2019-03-18T16:12:39.977Z,3.50
2019-03-18T16:15:08.654Z,3.74
2019-03-18T16:17:34.527Z,3.89
2019-03-18T16:20:00.391Z,3.94
2019-03-18T16:22:26.185Z,3.90
2019-03-18T16:24:52.032Z,3.92
2019-03-18T16:27:17.853Z,3.92
2019-03-18T16:29:43.689Z,3.81
2019-03-18T16:32:11.489Z,3.72
2019-03-18T16:34:37.372Z,3.77
2019-03-18T16:37:03.304Z,3.92
2019-03-18T16:39:29.156Z,3.86
2019-03-18T16:41:55.081Z,4.15
2019-03-18T16:44:21.054Z,4.14
2019-03-18T16:46:46.993Z,3.98
2019-03-18T16:49:12.914Z,3.90
2019-03-18T16:51:38.749Z,3.93
2019-03-18T16:54:04.594Z,3.83
2019-03-18T16:56:30.524Z,3.59
2019-03-18T16:58:56.471Z,3.81
2019-03-18T17:01:22.319Z,3.97
2019-03-18T17:03:48.260Z,3.94
2019-03-18T17:06:14.112Z,3.84
2019-03-18T17:08:40.164Z,3.83
2019-03-18T17:11:06.148Z,3.92
2019-03-18T17:13:32.089Z,3.80
2019-03-18T17:15:57.937Z,3.65
2019-03-18T17:18:23.800Z,3.78
2019-03-18T17:20:49.746Z,3.77
2019-03-18T17:23:15.695Z,3.69
2019-03-18T17:25:41.624Z,3.56
2019-03-18T17:28:07.482Z,3.36
2019-03-18T17:30:33.318Z,3.06
2019-03-18T17:32:59.165Z,2.95
2019-03-18T17:35:25.097Z,2.82
2019-03-18T17:37:50.946Z,2.78
2019-03-18T17:40:17.687Z,2.73
2019-03-18T17:42:43.509Z,2.70
2019-03-18T17:45:11.550Z,2.72
2019-03-18T17:47:37.491Z,2.79
2019-03-18T17:50:09.627Z,2.94
2019-03-18T17:52:35.476Z,3.10
2019-03-18T17:55:01.550Z,3.14
2019-03-18T17:57:27.601Z,3.20
2019-03-18T17:59:53.542Z,3.07
2019-03-18T18:02:19.396Z,2.99
2019-03-18T18:04:45.349Z,2.96
2019-03-18T18:07:11.323Z,2.99
2019-03-18T18:09:37.251Z,3.00
2019-03-18T18:12:03.089Z,3.11
2019-03-18T18:14:29.093Z,3.06
2019-03-18T18:16:54.912Z,3.34
2019-03-18T18:19:20.730Z,3.29
2019-03-18T18:21:46.559Z,3.29
2019-03-18T18:24:12.516Z,3.21
2019-03-18T18:26:38.350Z,3.09
2019-03-18T18:29:04.160Z,3.03
2019-03-18T18:31:29.978Z,3.04
2019-03-18T18:33:55.787Z,3.05
2019-03-18T18:36:21.737Z,2.98
2019-03-18T18:38:47.574Z,3.05
2019-03-18T18:41:13.445Z,3.02
2019-03-18T18:43:39.281Z,3.06
2019-03-18T18:46:05.204Z,2.98
2019-03-18T18:48:31.190Z,2.95
2019-03-18T18:50:57.060Z,2.82
2019-03-18T18:53:26.569Z,2.36
2019-03-18T18:55:50.645Z,2.40
2019-03-18T18:58:16.475Z,2.29
2019-03-18T19:00:42.314Z,2.21
2019-03-18T19:03:08.247Z,1.95
2019-03-18T19:05:34.193Z,1.95
2019-03-18T19:08:00.042Z,1.98
2019-03-18T19:10:25.958Z,1.85
2019-03-18T19:12:51.820Z,1.92
2019-03-18T19:15:34.980Z,1.82
2019-03-18T19:18:00.913Z,1.90
2019-03-18T19:20:26.741Z,1.82
2019-03-18T19:22:52.892Z,1.98
2019-03-18T19:25:18.867Z,1.96
2019-03-18T19:27:44.691Z,2.04
2019-03-18T19:30:19.042Z,2.30
2019-03-18T19:32:44.983Z,2.35
2019-03-18T19:35:10.860Z,2.26
2019-03-18T19:37:36.722Z,2.23
2019-03-18T19:40:06.178Z,2.12
2019-03-18T19:42:32.011Z,1.96
2019-03-18T19:44:57.872Z,1.97
2019-03-18T19:47:23.716Z,1.79
2019-03-18T19:49:49.663Z,1.75
2019-03-18T19:52:15.508Z,1.68
2019-03-18T19:54:41.358Z,1.64
2019-03-18T19:57:07.178Z,1.61
2019-03-18T19:59:34.032Z,1.69
2019-03-18T20:01:59.877Z,1.70
2019-03-18T20:04:25.846Z,1.84
2019-03-18T20:06:51.791Z,1.79
2019-03-18T20:09:17.732Z,1.67
2019-03-18T20:11:43.567Z,1.47
2019-03-18T20:14:09.380Z,1.32
2019-03-18T20:16:35.601Z,1.39
2019-03-18T20:19:01.511Z,1.41
2019-03-18T20:21:27.458Z,1.34
2019-03-18T20:24:00.626Z,1.19
2019-03-18T20:26:21.105Z,1.25
2019-03-18T20:28:46.927Z,1.29
2019-03-18T20:31:12.779Z,1.43
2019-03-18T20:33:38.835Z,1.38
2019-03-18T20:36:04.680Z,1.51
2019-03-18T20:38:30.646Z,1.48
2019-03-18T20:40:56.456Z,1.44
2019-03-18T20:43:22.303Z,1.35
2019-03-18T20:45:48.108Z,1.27
2019-03-18T20:48:13.954Z,0.92
2019-03-18T20:50:39.898Z,1.01
2019-03-18T20:53:05.756Z,1.13
2019-03-18T20:55:31.667Z,1.17
2019-03-18T20:57:57.790Z,1.22
2019-03-18T21:00:23.715Z,1.12
2019-03-18T21:02:49.632Z,1.14
2019-03-18T21:05:15.462Z,1.14
2019-03-18T21:07:41.386Z,1.05
2019-03-18T21:10:11.841Z,1.11
2019-03-18T21:12:37.683Z,0.99
2019-03-18T21:15:06.005Z,1.07
2019-03-18T21:17:31.820Z,1.07
2019-03-18T21:19:57.668Z,1.09
2019-03-18T21:22:23.482Z,1.12
2019-03-18T21:24:49.326Z,1.18
2019-03-18T21:27:15.155Z,1.11
2019-03-18T21:29:40.997Z,0.89
2019-03-18T21:32:07.682Z,0.81
2019-03-18T21:34:33.527Z,0.91
2019-03-18T21:36:59.401Z,1.01
2019-03-18T21:39:25.253Z,1.06
2019-03-18T21:41:51.161Z,1.02
2019-03-18T21:44:17.006Z,1.01
2019-03-18T21:46:43.534Z,1.05
2019-03-18T21:49:09.481Z,0.96
2019-03-18T21:51:35.333Z,0.73
2019-03-18T21:54:01.140Z,0.68
2019-03-18T21:56:26.970Z,0.77
2019-03-18T21:58:52.802Z,0.83
2019-03-18T22:01:18.647Z,0.61
2019-03-18T22:03:44.679Z,0.75
2019-03-18T22:06:10.510Z,0.78
2019-03-18T22:08:36.437Z,0.85
2019-03-18T22:11:02.267Z,0.69
2019-03-18T22:13:28.232Z,0.55
2019-03-18T22:15:54.045Z,0.53
2019-03-18T22:18:19.910Z,0.46
2019-03-18T22:20:45.713Z,0.48
2019-03-18T22:23:11.646Z,0.50
2019-03-18T22:25:37.453Z,0.59
2019-03-18T22:28:03.506Z,0.57
2019-03-18T22:30:29.322Z,0.26
2019-03-18T22:32:55.391Z,0.31
2019-03-18T22:35:21.320Z,0.27
2019-03-18T22:37:47.270Z,0.33
2019-03-18T22:40:15.706Z,0.46
2019-03-18T22:42:41.642Z,0.42
2019-03-18T22:45:11.425Z,0.30
2019-03-18T22:47:37.248Z,0.29
2019-03-18T22:50:05.912Z,0.26
2019-03-18T22:52:31.941Z,0.19
2019-03-18T22:54:57.879Z,0.40
2019-03-18T22:57:23.799Z,0.36
2019-03-18T22:59:49.634Z,0.37
2019-03-18T23:02:15.512Z,-0.03
2019-03-18T23:04:41.293Z,-0.15
2019-03-18T23:07:07.147Z,-0.11
2019-03-18T23:09:32.964Z,-0.20
2019-03-18T23:11:58.800Z,-0.20
2019-03-18T23:14:24.628Z,-0.03
2019-03-18T23:16:50.480Z,-0.01
2019-03-18T23:19:16.286Z,0.04
2019-03-18T23:21:42.129Z,0.13
2019-03-18T23:24:07.951Z,0.05
2019-03-18T23:26:33.815Z,0.14
2019-03-18T23:28:59.661Z,0.12
2019-03-18T23:31:25.506Z,0.12
2019-03-18T23:33:51.325Z,0.21
2019-03-18T23:36:17.141Z,0.25
2019-03-18T23:38:42.986Z,0.19
2019-03-18T23:41:08.789Z,0.24
2019-03-18T23:43:34.601Z,0.22
2019-03-18T23:46:00.408Z,0.21
2019-03-18T23:48:26.285Z,0.28
2019-03-18T23:50:52.087Z,0.26
2019-03-18T23:53:17.908Z,0.29
2019-03-18T23:55:43.744Z,0.15
2019-03-18T23:58:09.570Z,0.16
